createdAt,value
2022-10-05T03:38:24.192Z,8.55
2022-10-05T03:41:54.805Z,7.25
2022-10-05T03:45:02.206Z,10.15
2022-10-05T03:48:13.630Z,11.40
2022-10-05T03:51:42.771Z,8.27
2022-10-05T03:54:56.049Z,6.47
2022-10-05T03:58:06.657Z,6.90
2022-10-05T04:01:16.107Z,8.90
2022-10-05T04:04:26.595Z,6.85
2022-10-05T04:07:38.063Z,9.30
2022-10-05T04:10:51.516Z,11.12
2022-10-05T04:14:17.703Z,8.10
2022-10-05T04:17:34.707Z,8.07
2022-10-05T04:20:44.264Z,6.93
2022-10-05T04:24:12.059Z,6.37
2022-10-05T04:27:20.468Z,7.53
2022-10-05T04:30:23.502Z,10.75
2022-10-05T04:33:27.576Z,5.95
2022-10-05T04:36:41.043Z,6.90
2022-10-05T04:40:05.946Z,7.80
2022-10-05T04:43:31.022Z,6.65
2022-10-05T04:46:48.861Z,10.63
2022-10-05T04:50:21.163Z,8.30
2022-10-05T04:53:57.434Z,13.75
2022-10-05T04:57:03.441Z,11.05
2022-10-05T05:00:19.893Z,9.55
2022-10-05T05:03:45.106Z,14.55
2022-10-05T05:07:09.122Z,16.48
2022-10-05T05:10:32.688Z,8.80
2022-10-05T05:13:54.700Z,10.32
2022-10-05T05:17:14.796Z,14.75
2022-10-05T05:20:25.933Z,13.38
2022-10-05T05:24:00.953Z,10.80
2022-10-05T05:27:31.459Z,12.18
2022-10-05T05:31:05.470Z,13.93
2022-10-05T05:34:36.571Z,10.32
2022-10-05T05:37:52.078Z,11.57
2022-10-05T05:41:33.106Z,12.50
2022-10-05T05:44:47.920Z,10.48
2022-10-05T05:47:54.316Z,12.73
2022-10-05T05:51:10.721Z,13.60
2022-10-05T05:54:16.259Z,14.82
2022-10-05T05:57:28.000Z,16.30
2022-10-05T06:00:37.858Z,10.85
2022-10-05T06:03:51.162Z,13.15
2022-10-05T06:06:57.627Z,12.93
2022-10-05T06:10:32.552Z,10.25
2022-10-05T06:13:39.740Z,14.95
2022-10-05T06:16:56.307Z,12.55
2022-10-05T06:20:07.987Z,23.48
2022-10-05T06:23:20.524Z,16.75
2022-10-05T06:26:59.611Z,13.85
2022-10-05T06:30:11.447Z,11.45
2022-10-05T06:33:21.935Z,14.70
2022-10-05T06:36:40.306Z,10.77
2022-10-05T06:40:19.499Z,14.77
2022-10-05T06:43:47.745Z,13.00
2022-10-05T06:47:22.378Z,11.35
2022-10-05T06:50:34.346Z,13.45
2022-10-05T06:54:04.587Z,10.63
2022-10-05T06:57:46.293Z,15.70
2022-10-05T07:00:54.174Z,11.85
2022-10-05T07:04:14.531Z,17.48
2022-10-05T07:07:27.295Z,12.45
2022-10-05T07:10:49.312Z,9.55
2022-10-05T07:14:03.915Z,15.30
2022-10-05T07:21:16.911Z,15.40
2022-10-05T07:24:33.318Z,16.65
2022-10-05T07:28:00.561Z,12.13
2022-10-05T07:31:19.819Z,19.62
2022-10-05T07:34:31.313Z,12.65
2022-10-05T07:38:00.088Z,10.48
2022-10-05T07:41:08.038Z,13.35
2022-10-05T07:44:30.975Z,15.75
2022-10-05T07:47:43.542Z,17.45
2022-10-05T07:50:56.444Z,16.35
2022-10-05T07:54:10.099Z,16.52
2022-10-05T07:57:35.193Z,21.60
2022-10-05T08:01:00.658Z,19.58
2022-10-05T08:04:30.873Z,28.38
2022-10-05T08:07:35.924Z,18.75
2022-10-05T08:11:00.984Z,22.60
2022-10-05T08:14:33.535Z,18.42
2022-10-05T08:17:58.285Z,19.73
2022-10-05T08:21:01.468Z,21.17
2022-10-05T08:27:48.718Z,19.67
2022-10-05T08:31:01.053Z,19.80
2022-10-05T08:34:20.982Z,16.08
2022-10-05T08:37:29.877Z,17.83
2022-10-05T08:41:15.363Z,25.42
2022-10-05T08:44:55.518Z,16.67
2022-10-05T08:48:25.654Z,18.48
2022-10-05T08:51:42.541Z,21.80
2022-10-05T08:55:12.751Z,16.65
2022-10-05T08:58:53.375Z,15.30
2022-10-05T09:01:59.208Z,15.57
2022-10-05T09:05:40.135Z,13.20
2022-10-05T09:09:19.101Z,15.05
2022-10-05T09:12:46.310Z,15.32
2022-10-05T09:16:07.407Z,12.55
2022-10-05T09:19:43.081Z,15.30
2022-10-05T09:23:29.694Z,15.07
2022-10-05T09:27:04.575Z,15.80
2022-10-05T09:30:28.388Z,16.12
2022-10-05T09:34:08.810Z,13.38
2022-10-05T09:37:23.137Z,14.23
2022-10-05T09:40:41.632Z,11.38
2022-10-05T09:44:22.027Z,10.68
2022-10-05T09:47:59.102Z,12.80
2022-10-05T09:51:19.831Z,12.30
2022-10-05T09:54:37.441Z,14.65
2022-10-05T09:58:02.525Z,14.65
2022-10-05T10:01:39.273Z,8.95
2022-10-05T10:05:16.006Z,8.02
2022-10-05T10:08:34.518Z,9.25
2022-10-05T10:11:49.417Z,13.95
2022-10-05T10:15:29.735Z,13.57
2022-10-05T10:18:42.742Z,13.45
2022-10-05T10:21:57.310Z,14.43
2022-10-05T10:25:21.238Z,12.95
2022-10-05T10:28:45.109Z,11.10
2022-10-05T10:32:26.328Z,10.45
2022-10-05T10:35:40.607Z,9.63
2022-10-05T10:38:59.867Z,15.43
2022-10-05T10:42:29.807Z,10.70
2022-10-05T10:45:54.295Z,13.25
2022-10-05T10:49:19.725Z,9.02
2022-10-05T10:52:56.350Z,11.10
2022-10-05T10:56:29.244Z,11.85
2022-10-05T11:00:05.685Z,11.30
2022-10-05T11:03:32.688Z,10.93
2022-10-05T11:06:54.154Z,12.50
2022-10-05T11:10:37.314Z,8.25
2022-10-05T11:14:02.821Z,10.20
2022-10-05T11:17:15.474Z,10.65
2022-10-05T11:20:49.434Z,11.35
2022-10-05T11:24:13.700Z,16.80
2022-10-05T11:28:03.885Z,18.17
2022-10-05T11:31:23.790Z,12.05
2022-10-05T11:34:36.995Z,14.55
2022-10-05T11:37:57.681Z,15.00
2022-10-05T11:41:27.726Z,12.05
2022-10-05T11:44:43.006Z,16.58
2022-10-05T11:47:45.714Z,14.48
2022-10-05T11:50:51.176Z,13.40
2022-10-05T11:54:09.660Z,10.98
2022-10-05T11:57:26.132Z,12.93
2022-10-05T12:00:50.136Z,13.25
2022-10-05T12:04:23.880Z,8.82
2022-10-05T12:07:33.453Z,11.45
2022-10-05T12:10:52.240Z,20.42
2022-10-05T12:14:06.717Z,13.50
2022-10-05T12:17:41.656Z,11.75
2022-10-05T12:21:07.348Z,8.15
2022-10-05T12:24:26.948Z,9.13
2022-10-05T12:27:36.774Z,11.55
2022-10-05T12:31:10.020Z,9.02
2022-10-05T12:34:20.985Z,9.10
2022-10-05T12:37:53.457Z,10.98
2022-10-05T12:41:15.004Z,9.40
2022-10-05T12:44:55.157Z,10.50
2022-10-05T12:48:28.252Z,10.90
2022-10-05T12:51:41.855Z,6.93
2022-10-05T12:58:06.468Z,9.20
2022-10-05T13:01:14.978Z,6.47
2022-10-05T13:04:21.797Z,7.12
2022-10-05T13:07:42.560Z,5.97
2022-10-05T13:10:53.645Z,4.37
2022-10-05T13:14:16.439Z,5.47
2022-10-05T13:17:46.808Z,4.75
2022-10-05T13:20:57.804Z,5.65
2022-10-05T13:24:33.990Z,6.18
2022-10-05T13:28:00.759Z,6.12
2022-10-05T13:31:14.899Z,6.15
2022-10-05T13:34:43.427Z,8.57
2022-10-05T13:38:36.269Z,7.75
2022-10-05T13:42:26.016Z,7.45
2022-10-05T13:45:41.180Z,6.28
2022-10-05T13:48:59.986Z,5.68
2022-10-05T13:52:08.762Z,7.97
2022-10-05T13:55:21.906Z,6.18
2022-10-05T13:58:52.713Z,8.27
2022-10-05T14:02:04.903Z,12.18
2022-10-05T14:05:17.824Z,5.07
2022-10-05T14:08:23.115Z,8.25
2022-10-05T14:11:35.137Z,6.72
2022-10-05T14:14:52.806Z,5.18
2022-10-05T14:17:55.914Z,9.02
2022-10-05T14:21:03.015Z,8.23
2022-10-05T14:24:43.654Z,9.38
2022-10-05T14:28:25.818Z,6.20
2022-10-05T14:31:37.475Z,13.90
2022-10-05T14:34:46.111Z,7.20
2022-10-05T14:38:07.923Z,10.15
2022-10-05T14:41:19.052Z,7.85
2022-10-05T14:47:45.481Z,9.60
2022-10-05T14:51:03.296Z,5.35
2022-10-05T14:54:46.373Z,9.48
2022-10-05T14:58:04.721Z,5.22
2022-10-05T15:01:31.462Z,9.32
2022-10-05T15:05:14.315Z,6.40
2022-10-05T15:08:27.501Z,11.30
2022-10-05T15:11:38.328Z,9.35
2022-10-05T15:14:44.233Z,7.50
2022-10-05T15:17:54.374Z,13.55
2022-10-05T15:21:24.788Z,6.93
2022-10-05T15:24:41.273Z,8.85
2022-10-05T15:28:06.598Z,10.32
2022-10-05T15:31:48.852Z,7.95
2022-10-05T15:35:22.277Z,9.77
2022-10-05T15:38:28.567Z,8.00
2022-10-05T15:41:37.000Z,6.70
2022-10-05T15:45:06.376Z,10.63
2022-10-05T15:48:41.065Z,8.95
